createdAt,value
2023-09-27T00:02:12.953Z,91.43
2023-09-27T00:06:16.284Z,91.30
2023-09-27T00:10:18.936Z,91.28
2023-09-27T00:14:21.477Z,91.36
2023-09-27T00:18:23.851Z,91.36
2023-09-27T00:22:25.894Z,90.97
2023-09-27T00:26:27.943Z,91.09
2023-09-27T00:30:30.309Z,91.12
2023-09-27T00:34:32.499Z,91.46
2023-09-27T00:38:35.277Z,91.31
2023-09-27T00:42:38.000Z,91.65
2023-09-27T00:46:41.006Z,91.45
2023-09-27T00:50:43.134Z,91.45
2023-09-27T00:54:45.570Z,91.67
2023-09-27T00:58:49.115Z,92.09
2023-09-27T01:02:51.525Z,92.64
2023-09-27T01:06:53.725Z,92.36
2023-09-27T01:10:55.934Z,92.04
2023-09-27T01:14:57.995Z,91.83
2023-09-27T01:19:03.660Z,92.24
2023-09-27T01:23:06.866Z,92.85
2023-09-27T01:27:10.751Z,93.35
2023-09-27T01:31:14.616Z,93.63
2023-09-27T01:35:16.810Z,94.09
2023-09-27T01:39:19.195Z,93.96
2023-09-27T01:43:21.703Z,93.25
2023-09-27T01:47:24.164Z,93.20
2023-09-27T01:51:26.263Z,92.94
2023-09-27T01:55:28.345Z,92.25
2023-09-27T01:59:30.417Z,91.79
2023-09-27T02:03:32.523Z,91.71
2023-09-27T02:07:41.938Z,91.88
2023-09-27T02:11:44.252Z,91.87
2023-09-27T02:15:46.651Z,91.98
2023-09-27T02:19:48.687Z,92.31
2023-09-27T02:23:50.713Z,92.78
2023-09-27T02:27:52.805Z,92.91
2023-09-27T02:31:54.829Z,93.06
2023-09-27T02:35:56.805Z,93.20
2023-09-27T02:39:59.393Z,93.41
2023-09-27T02:44:03.427Z,93.69
2023-09-27T02:48:05.917Z,94.25
2023-09-27T02:52:07.991Z,94.95
2023-09-27T02:56:10.107Z,95.66
2023-09-27T03:00:12.431Z,95.87
2023-09-27T03:04:16.640Z,95.80
2023-09-27T03:08:19.358Z,95.91
2023-09-27T03:12:21.359Z,96.13
2023-09-27T03:16:24.389Z,96.10
2023-09-27T03:20:27.615Z,96.09
2023-09-27T03:24:30.814Z,96.23
2023-09-27T03:28:32.876Z,96.09
2023-09-27T03:32:35.492Z,95.79
2023-09-27T03:36:38.535Z,95.70
2023-09-27T03:40:41.156Z,95.05
2023-09-27T03:44:43.171Z,94.58
2023-09-27T03:48:45.369Z,94.14
2023-09-27T03:52:47.471Z,93.73
2023-09-27T03:56:49.459Z,93.85
2023-09-27T04:00:51.486Z,94.24
2023-09-27T04:04:53.521Z,94.44
2023-09-27T04:08:55.828Z,94.20
2023-09-27T04:12:58.056Z,93.85
2023-09-27T04:17:02.312Z,94.09
2023-09-27T04:21:09.095Z,93.86
2023-09-27T04:25:15.498Z,93.15
2023-09-27T04:29:17.586Z,93.60
2023-09-27T04:33:19.969Z,93.42
2023-09-27T04:37:22.482Z,93.58
2023-09-27T04:41:24.883Z,94.29
2023-09-27T04:45:27.066Z,94.72
2023-09-27T04:49:29.189Z,95.27
2023-09-27T04:53:35.353Z,95.54
2023-09-27T04:57:37.958Z,95.37
2023-09-27T05:01:39.993Z,94.67
2023-09-27T05:05:42.127Z,93.96
2023-09-27T05:09:44.416Z,93.73
2023-09-27T05:13:47.421Z,94.08
2023-09-27T05:17:49.501Z,94.28
2023-09-27T05:21:51.541Z,94.87
2023-09-27T05:25:53.572Z,95.68
2023-09-27T05:29:55.922Z,95.76
2023-09-27T05:33:57.956Z,95.96
2023-09-27T05:38:00.279Z,96.37
2023-09-27T05:42:02.649Z,96.43
2023-09-27T05:46:04.648Z,96.51
2023-09-27T05:50:14.491Z,96.22
2023-09-27T05:54:20.157Z,96.54
2023-09-27T05:58:22.162Z,96.55
2023-09-27T06:02:31.597Z,96.81
2023-09-27T06:06:34.893Z,96.97
2023-09-27T06:10:36.916Z,97.18
2023-09-27T06:14:44.696Z,97.43
2023-09-27T06:18:46.702Z,97.48
2023-09-27T06:22:54.964Z,97.59
2023-09-27T06:26:56.866Z,97.36
2023-09-27T06:31:00.269Z,97.19
2023-09-27T06:35:11.253Z,96.83
2023-09-27T06:39:13.946Z,96.77
2023-09-27T06:43:16.127Z,96.34
2023-09-27T06:47:18.142Z,96.20
2023-09-27T06:51:20.714Z,95.99
2023-09-27T06:55:23.339Z,95.62
2023-09-27T06:59:26.376Z,95.49
2023-09-27T07:03:30.434Z,95.02
2023-09-27T07:07:32.595Z,94.73
2023-09-27T07:11:35.085Z,94.69
2023-09-27T07:15:37.856Z,94.34
2023-09-27T07:19:40.446Z,94.08
2023-09-27T07:23:42.955Z,93.77
2023-09-27T07:27:47.069Z,93.29
2023-09-27T07:31:49.094Z,93.06
2023-09-27T07:35:52.844Z,92.71
2023-09-27T07:39:54.836Z,92.05
2023-09-27T07:43:56.911Z,91.36
2023-09-27T07:47:59.408Z,90.91
2023-09-27T07:52:01.477Z,90.11
2023-09-27T07:56:03.812Z,88.86
2023-09-27T08:00:09.540Z,88.32
2023-09-27T08:04:15.940Z,87.32
2023-09-27T08:08:18.124Z,85.71
2023-09-27T08:12:21.242Z,85.77
2023-09-27T08:16:23.294Z,85.01
2023-09-27T08:20:25.465Z,84.28
2023-09-27T08:24:27.854Z,83.21
2023-09-27T08:28:34.269Z,82.30
2023-09-27T08:32:36.456Z,81.96
2023-09-27T08:36:38.587Z,81.19
2023-09-27T08:40:43.283Z,80.20
2023-09-27T08:44:46.363Z,79.78
2023-09-27T08:48:49.444Z,79.34
2023-09-27T08:52:52.279Z,78.32
2023-09-27T08:56:56.561Z,77.63
2023-09-27T09:00:58.775Z,77.09
2023-09-27T09:05:00.769Z,76.57
2023-09-27T09:09:12.694Z,76.12
2023-09-27T09:13:17.954Z,75.24
2023-09-27T09:17:20.456Z,74.83
2023-09-27T09:21:25.888Z,74.35
2023-09-27T09:25:29.079Z,74.11
2023-09-27T09:29:49.167Z,73.16
2023-09-27T09:34:04.164Z,72.51
2023-09-27T09:38:06.222Z,72.20
2023-09-27T09:42:09.406Z,72.18
2023-09-27T09:46:14.040Z,72.07
2023-09-27T09:50:19.389Z,71.35
2023-09-27T09:59:04.562Z,70.15
2023-09-27T10:03:16.370Z,69.46
2023-09-27T10:07:18.732Z,69.20
2023-09-27T10:11:23.987Z,68.75
2023-09-27T10:15:27.616Z,68.41
2023-09-27T10:19:30.143Z,68.06
2023-09-27T10:23:45.017Z,67.84
2023-09-27T10:28:02.361Z,67.70
2023-09-27T10:32:04.408Z,67.48
2023-09-27T10:36:27.376Z,67.25
2023-09-27T10:40:41.729Z,66.33
2023-09-27T10:44:44.423Z,66.09
2023-09-27T10:48:58.797Z,66.02
2023-09-27T10:53:00.844Z,66.03
2023-09-27T10:57:03.335Z,65.71
2023-09-27T11:01:05.503Z,65.15
2023-09-27T11:05:08.939Z,64.73
2023-09-27T11:09:12.949Z,64.53
2023-09-27T11:13:15.124Z,64.23
2023-09-27T11:17:24.468Z,63.91
2023-09-27T11:21:27.650Z,63.72
2023-09-27T11:25:31.542Z,63.09
2023-09-27T11:29:33.596Z,62.44
2023-09-27T11:33:35.578Z,62.06
2023-09-27T11:37:39.991Z,61.81
2023-09-27T11:41:44.465Z,61.42
2023-09-27T11:45:50.880Z,60.87
2023-09-27T11:49:52.928Z,60.57
2023-09-27T11:53:55.193Z,60.44
2023-09-27T11:57:58.856Z,59.96
2023-09-27T12:02:09.225Z,59.67
2023-09-27T12:06:15.579Z,58.90
2023-09-27T12:10:18.092Z,57.90
2023-09-27T12:14:20.243Z,57.59
2023-09-27T12:18:23.738Z,57.25
2023-09-27T12:22:25.783Z,56.96
2023-09-27T12:26:27.886Z,56.52
2023-09-27T12:30:30.084Z,55.77
2023-09-27T12:34:32.044Z,55.50
2023-09-27T12:38:34.114Z,55.50
2023-09-27T12:42:36.550Z,54.98
2023-09-27T12:46:39.721Z,54.67
2023-09-27T12:50:42.649Z,54.30
2023-09-27T12:54:46.226Z,54.53
2023-09-27T12:58:48.329Z,54.16
2023-09-27T13:02:50.919Z,53.91
2023-09-27T13:06:53.048Z,53.77
2023-09-27T13:10:55.165Z,53.66
2023-09-27T13:14:57.689Z,53.06
2023-09-27T13:19:00.129Z,53.36
2023-09-27T13:23:02.245Z,53.06
2023-09-27T13:27:04.720Z,53.01
2023-09-27T13:31:06.744Z,52.98
2023-09-27T13:35:08.984Z,52.74
2023-09-27T13:39:25.810Z,52.66
2023-09-27T13:43:29.302Z,52.47
2023-09-27T13:47:31.643Z,52.82
2023-09-27T13:51:36.660Z,52.97
2023-09-27T13:55:39.011Z,52.79
2023-09-27T13:59:41.058Z,52.84
2023-09-27T14:03:43.135Z,52.91
2023-09-27T14:07:45.418Z,53.14
2023-09-27T14:11:47.406Z,53.21
2023-09-27T14:15:49.481Z,53.08
2023-09-27T14:19:51.777Z,53.42
2023-09-27T14:23:54.598Z,53.45
2023-09-27T14:27:58.288Z,53.49
2023-09-27T14:32:00.557Z,53.49
2023-09-27T14:36:05.844Z,53.53
2023-09-27T14:40:10.343Z,53.45
2023-09-27T14:44:13.018Z,53.61
2023-09-27T14:48:14.959Z,53.31
2023-09-27T14:52:16.962Z,52.82
2023-09-27T14:56:19.131Z,52.24
2023-09-27T15:00:23.291Z,51.72
2023-09-27T15:04:26.215Z,51.48
2023-09-27T15:08:28.641Z,51.55
2023-09-27T15:12:30.530Z,51.56
2023-09-27T15:16:34.692Z,51.58
2023-09-27T15:20:36.615Z,51.97
2023-09-27T15:24:38.865Z,51.88
2023-09-27T15:28:41.458Z,51.99
2023-09-27T15:32:43.484Z,52.28
2023-09-27T15:36:45.673Z,52.36
2023-09-27T15:40:47.659Z,52.52
2023-09-27T15:44:50.730Z,52.84
2023-09-27T15:48:53.229Z,53.08
2023-09-27T15:52:55.332Z,53.38
2023-09-27T15:56:57.490Z,53.59
2023-09-27T16:01:01.002Z,53.94
2023-09-27T16:05:04.709Z,54.26
2023-09-27T16:09:08.372Z,54.59
2023-09-27T16:13:10.532Z,54.89
2023-09-27T16:17:12.670Z,55.49
2023-09-27T16:27:08.942Z,56.50
2023-09-27T16:31:33.117Z,56.86
2023-09-27T16:35:39.918Z,57.28
2023-09-27T16:39:42.423Z,57.85
2023-09-27T16:43:44.746Z,58.59
2023-09-27T16:47:52.072Z,59.11
2023-09-27T16:51:54.412Z,59.71
2023-09-27T16:55:56.714Z,60.46
2023-09-27T16:59:58.973Z,61.26
2023-09-27T17:04:01.315Z,61.93
2023-09-27T17:08:04.295Z,62.85
2023-09-27T17:12:06.879Z,63.33
2023-09-27T17:16:09.082Z,64.00
2023-09-27T17:20:11.559Z,64.82
2023-09-27T17:24:14.264Z,65.14
2023-09-27T17:28:16.437Z,65.40
2023-09-27T17:32:18.831Z,65.85
2023-09-27T17:36:21.263Z,66.08
2023-09-27T17:40:23.637Z,66.54
2023-09-27T17:44:25.918Z,66.98
2023-09-27T17:48:28.077Z,67.51
2023-09-27T17:52:30.357Z,68.02
2023-09-27T17:56:32.921Z,68.35
2023-09-27T18:00:35.085Z,68.59
2023-09-27T18:04:39.346Z,68.91
2023-09-27T18:08:41.808Z,69.36
2023-09-27T18:12:43.850Z,69.99
2023-09-27T18:16:46.506Z,70.44
2023-09-27T18:20:49.579Z,70.71
2023-09-27T18:24:51.759Z,70.71
2023-09-27T18:28:55.041Z,70.80
2023-09-27T18:32:57.154Z,71.32
2023-09-27T18:36:59.226Z,71.76
2023-09-27T18:41:01.358Z,71.99
2023-09-27T18:45:03.674Z,72.27
2023-09-27T18:49:05.597Z,72.38
2023-09-27T18:53:08.347Z,72.15
2023-09-27T18:57:10.972Z,72.60
2023-09-27T19:01:13.952Z,72.85
2023-09-27T19:05:16.179Z,73.08
2023-09-27T19:09:19.291Z,73.28
2023-09-27T19:13:21.345Z,73.45
2023-09-27T19:17:23.585Z,73.67
2023-09-27T19:21:25.589Z,73.50
2023-09-27T19:25:27.734Z,73.76
2023-09-27T19:29:29.813Z,74.13
2023-09-27T19:33:31.955Z,74.36
2023-09-27T19:37:34.015Z,74.98
2023-09-27T19:41:36.056Z,75.17
2023-09-27T19:45:38.102Z,75.08
2023-09-27T19:49:40.484Z,75.41
2023-09-27T19:53:42.676Z,75.65
2023-09-27T19:57:45.384Z,75.79
2023-09-27T20:01:48.103Z,75.89
2023-09-27T20:05:50.211Z,76.08
2023-09-27T20:09:52.390Z,76.14
2023-09-27T20:13:54.628Z,76.11
2023-09-27T20:17:56.860Z,76.36
2023-09-27T20:21:58.902Z,76.54
2023-09-27T20:26:02.256Z,76.97
2023-09-27T20:30:04.669Z,77.06
2023-09-27T20:34:06.695Z,77.06
2023-09-27T20:38:09.838Z,77.30
2023-09-27T20:42:13.379Z,77.72
2023-09-27T20:46:16.714Z,77.88
2023-09-27T20:50:18.790Z,78.16
2023-09-27T20:54:21.144Z,78.22
2023-09-27T20:58:23.232Z,78.13
2023-09-27T21:02:25.242Z,78.12
2023-09-27T21:06:28.674Z,78.26
2023-09-27T21:10:31.128Z,78.55
2023-09-27T21:14:37.745Z,78.64
2023-09-27T21:18:39.701Z,78.92
2023-09-27T21:22:41.709Z,79.31
2023-09-27T21:26:43.722Z,79.64
2023-09-27T21:30:45.868Z,79.74
2023-09-27T21:34:49.221Z,79.52
2023-09-27T21:38:51.401Z,79.78
2023-09-27T21:42:53.526Z,80.09
2023-09-27T21:46:55.539Z,80.09
2023-09-27T21:50:57.706Z,80.44
2023-09-27T21:54:59.708Z,81.02
2023-09-27T21:59:02.583Z,81.30
2023-09-27T22:03:05.339Z,81.76
2023-09-27T22:07:07.554Z,81.33
2023-09-27T22:11:09.602Z,80.79
2023-09-27T22:15:11.671Z,79.74
2023-09-27T22:19:13.626Z,79.87
2023-09-27T22:23:34.440Z,80.24
2023-09-27T22:27:36.759Z,80.33
2023-09-27T22:31:39.735Z,80.76
2023-09-27T22:35:48.748Z,80.71
2023-09-27T22:39:52.993Z,80.50
2023-09-27T22:44:01.307Z,81.14
2023-09-27T22:48:04.170Z,81.28
2023-09-27T22:52:09.607Z,81.10
2023-09-27T22:56:11.790Z,81.06
2023-09-27T23:00:20.687Z,81.14
2023-09-27T23:04:23.477Z,81.31
2023-09-27T23:08:28.317Z,81.49
2023-09-27T23:12:36.557Z,81.08
2023-09-27T23:16:48.250Z,81.21
2023-09-27T23:20:50.281Z,80.74
2023-09-27T23:25:12.225Z,80.71
2023-09-27T23:29:34.325Z,81.12
2023-09-27T23:33:44.276Z,82.25
2023-09-27T23:37:47.007Z,82.47
2023-09-27T23:42:02.300Z,83.01
2023-09-27T23:46:06.703Z,82.96
2023-09-27T23:50:11.734Z,82.87
2023-09-27T23:54:14.341Z,82.97
2023-09-27T23:58:16.279Z,83.34
